Time;durP1;ratioP1;P1;durP2;ratioP2;P2;SDS_P1;SDS_P2;PMS_P1;PMS_P2;Temp;Humidity;BMP_temperature;BMP_pressure;BME280_temperature;BME280_humidity;BME280_pressure;Samples;Min_cycle;Max_cycle;Signal;HPM_P1;HPM_P2
2021/08/27 00:02:06;;;;;;;52.83;38.60;;;;;;;22.69;91.50;99315.81;5076962;28;20016;-68
2021/08/27 00:04:32;;;;;;;57.88;37.92;;;;;;;22.83;91.16;99333.28;5073602;28;20103;-68
2021/08/27 00:06:58;;;;;;;49.83;37.40;;;;;;;22.71;92.67;99326.34;5091586;28;20099;-69
2021/08/27 00:09:23;;;;;;;49.00;36.63;;;;;;;22.85;91.05;99327.63;5099819;28;20059;-69
2021/08/27 00:11:49;;;;;;;47.30;35.88;;;;;;;23.03;89.54;99329.22;5097158;28;20265;-68
2021/08/27 00:14:15;;;;;;;51.65;36.78;;;;;;;23.04;89.12;99318.16;5097142;28;20051;-68
2021/08/27 00:16:40;;;;;;;53.03;36.25;;;;;;;22.98;88.07;99310.25;5098790;28;20387;-69
2021/08/27 00:19:06;;;;;;;53.13;38.38;;;;;;;22.71;89.69;99310.97;5096397;28;20070;-69
2021/08/27 00:21:31;;;;;;;55.00;39.30;;;;;;;22.56;91.04;99308.91;5096533;28;20035;-68
2021/08/27 00:23:57;;;;;;;51.67;37.58;;;;;;;22.36;91.91;99308.63;5099230;28;20039;-68
2021/08/27 00:26:22;;;;;;;55.22;38.45;;;;;;;22.33;92.49;99311.81;5096625;28;20035;-68
2021/08/27 00:28:48;;;;;;;58.47;37.78;;;;;;;22.36;92.40;99313.22;5098654;28;20040;-68
2021/08/27 00:31:13;;;;;;;51.22;37.55;;;;;;;22.23;93.05;99309.81;5098324;28;20040;-69
2021/08/27 00:33:39;;;;;;;54.63;37.67;;;;;;;22.21;93.50;99321.91;5098555;28;20055;-68
2021/08/27 00:36:04;;;;;;;57.33;39.72;;;;;;;22.23;93.89;99330.56;5098736;28;20032;-68
2021/08/27 00:38:30;;;;;;;54.28;39.58;;;;;;;22.37;94.36;99333.72;5079639;28;20338;-68
2021/08/27 00:40:55;;;;;;;51.05;36.20;;;;;;;22.48;94.27;99339.00;5097096;28;20065;-68
2021/08/27 00:43:21;;;;;;;50.72;34.72;;;;;;;22.59;92.71;99340.78;5098391;28;20084;-68
2021/08/27 00:45:46;;;;;;;48.55;35.17;;;;;;;22.66;91.40;99332.50;5098493;28;20229;-68
2021/08/27 00:48:14;;;;;;;47.35;35.05;;;;;;;22.71;90.67;99327.16;5099025;28;20059;-68
2021/08/27 00:50:39;;;;;;;46.75;32.17;;;;;;;22.79;89.20;99318.63;5095253;28;21215;-68
2021/08/27 00:53:06;;;;;;;45.28;32.00;;;;;;;22.88;88.08;99327.94;5096970;28;20028;-68
2021/08/27 00:55:32;;;;;;;41.50;31.00;;;;;;;22.88;88.40;99337.91;5098940;28;20020;-68
2021/08/27 00:57:58;;;;;;;41.33;30.40;;;;;;;22.97;87.56;99332.94;5097889;28;20039;-68
2021/08/27 01:00:23;;;;;;;41.50;31.60;;;;;;;22.83;89.35;99337.88;5098703;28;20020;-68
2021/08/27 01:02:51;;;;;;;42.78;30.55;;;;;;;22.84;89.82;99332.22;5098394;28;20230;-68
2021/08/27 01:05:16;;;;;;;38.22;28.98;;;;;;;23.17;86.15;99325.03;5098161;28;20024;-68
2021/08/27 01:07:59;;;;;;;43.63;31.55;;;;;;;23.02;86.16;99316.78;5097809;28;20040;-68
2021/08/27 01:10:32;;;;;;;43.38;30.88;;;;;;;22.93;87.88;99321.81;5098715;28;20043;-68
2021/08/27 01:13:16;;;;;;;40.97;29.77;;;;;;;22.93;88.06;99328.03;5096365;28;20068;-68
2021/08/27 01:15:52;;;;;;;41.97;30.50;;;;;;;22.89;88.59;99329.59;5097011;28;20082;-68
2021/08/27 01:18:45;;;;;;;44.05;30.70;;;;;;;23.01;88.03;99326.75;5096651;28;20222;-68
2021/08/27 01:21:35;;;;;;;44.30;30.92;;;;;;;23.05;87.92;99327.88;5097380;28;20095;-68
2021/08/27 01:24:03;;;;;;;43.72;28.35;;;;;;;23.18;86.31;99322.09;5102139;28;20028;-68
2021/08/27 01:26:34;;;;;;;37.22;29.35;;;;;;;23.14;86.17;99314.75;5102551;28;20036;-68
2021/08/27 01:29:01;;;;;;;55.97;28.38;;;;;;;22.96;85.77;99302.41;5102300;28;20066;-68
2021/08/27 01:31:58;;;;;;;47.25;32.20;;;;;;;22.79;86.86;99296.22;5101647;28;20036;-68
2021/08/27 01:34:39;;;;;;;40.15;29.25;;;;;;;22.73;87.38;99289.94;5104607;28;20314;-68
2021/08/27 01:37:11;;;;;;;39.97;30.35;;;;;;;22.70;88.41;99295.84;5103850;28;20054;-68
2021/08/27 01:39:44;;;;;;;46.88;31.65;;;;;;;;;;5104523;28;20122;-68
2021/08/27 01:42:13;;;;;;;52.75;32.03;;;;;;;22.69;88.66;99291.50;5104493;28;20032;-68
2021/08/27 01:44:41;;;;;;;42.17;28.83;;;;;;;22.82;88.41;99310.06;5104354;28;20038;-68
2021/08/27 01:47:08;;;;;;;47.88;32.33;;;;;;;22.86;88.03;99307.66;5104413;28;20024;-68
2021/08/27 01:49:33;;;;;;;44.65;31.92;;;;;;;22.93;87.59;99295.63;5104397;28;20314;-68
2021/08/27 01:52:02;;;;;;;39.92;30.63;;;;;;;23.06;86.04;99293.59;5096697;28;20040;-68
2021/08/27 01:54:29;;;;;;;41.80;30.05;;;;;;;23.02;84.87;99290.59;5096824;28;20083;-68
2021/08/27 01:56:55;;;;;;;41.85;31.55;;;;;;;22.97;86.09;99292.41;5097710;28;20218;-68
2021/08/27 01:59:23;;;;;;;44.63;30.05;;;;;;;23.08;84.72;99272.56;5094579;28;20035;-68
2021/08/27 02:01:48;;;;;;;44.40;33.30;;;;;;;23.00;84.50;99276.53;5091506;28;20040;-68
2021/08/27 02:04:17;;;;;;;41.28;30.83;;;;;;;22.83;85.61;99286.56;5096157;28;20025;-68
2021/08/27 02:06:44;;;;;;;52.20;30.85;;;;;;;22.66;86.66;99289.31;5096558;28;20042;-68
2021/08/27 02:09:11;;;;;;;46.17;31.05;;;;;;;22.65;87.43;99284.16;5098275;28;20278;-68
2021/08/27 02:11:37;;;;;;;43.50;31.58;;;;;;;22.62;87.25;99285.50;5095514;28;20066;-68
2021/08/27 02:14:03;;;;;;;43.13;31.95;;;;;;;22.58;87.67;99298.66;5078252;28;20027;-68
2021/08/27 02:16:29;;;;;;;42.95;32.35;;;;;;;22.41;89.85;99303.31;5095125;28;20032;-68
2021/08/27 02:18:56;;;;;;;41.20;30.85;;;;;;;22.41;90.28;99297.91;5076527;28;20416;-69
2021/08/27 02:21:23;;;;;;;47.10;32.38;;;;;;;22.53;89.22;99303.19;5097319;28;20031;-68
2021/08/27 02:23:50;;;;;;;45.95;32.50;;;;;;;22.70;88.46;99314.72;5096693;28;20337;-68
2021/08/27 02:26:17;;;;;;;44.45;31.27;;;;;;;22.77;88.42;99301.03;5094504;28;20032;-68
2021/08/27 02:28:46;;;;;;;47.40;33.17;;;;;;;22.82;87.81;99291.16;5099453;28;20036;-68
2021/08/27 02:31:12;;;;;;;50.50;34.05;;;;;;;22.89;86.24;99280.19;5101141;28;20091;-68
2021/08/27 02:33:42;;;;;;;51.88;33.95;;;;;;;22.70;87.00;99268.03;5097740;28;20044;-68
2021/08/27 02:36:11;;;;;;;69.07;37.30;;;;;;;22.46;88.20;99275.56;5093643;28;20024;-68
2021/08/27 02:38:38;;;;;;;80.43;37.13;;;;;;;22.30;89.74;99270.00;5097931;28;20028;-68
2021/08/27 02:41:03;;;;;;;98.63;38.85;;;;;;;22.30;90.96;99272.69;5095517;28;20016;-68
2021/08/27 02:43:29;;;;;;;85.78;41.10;;;;;;;22.29;92.48;99273.75;5096270;28;20085;-68
2021/08/27 02:45:55;;;;;;;104.22;39.58;;;;;;;22.37;92.16;99275.19;5095137;28;20161;-68
2021/08/27 02:48:20;;;;;;;67.70;38.65;;;;;;;22.42;92.81;99280.66;5084284;28;20259;-68
2021/08/27 02:50:53;;;;;;;122.00;39.03;;;;;;;22.51;91.83;99264.84;5101702;28;20034;-68
2021/08/27 02:53:23;;;;;;;121.43;38.08;;;;;;;22.62;90.63;99270.13;5097533;28;20035;-68
2021/08/27 02:55:58;;;;;;;119.78;35.92;;;;;;;22.69;88.91;99267.22;5093027;28;20036;-68
2021/08/27 02:58:27;;;;;;;101.03;34.10;;;;;;;22.57;89.79;99286.25;5095393;28;20032;-68
2021/08/27 03:00:59;;;;;;;68.80;36.20;;;;;;;22.43;91.01;99284.16;5091354;28;20133;-68
2021/08/27 03:03:29;;;;;;;93.40;35.72;;;;;;;22.49;91.79;99278.59;5094770;28;20043;-68
2021/08/27 03:06:14;;;;;;;77.78;36.80;;;;;;;22.55;90.92;99282.16;5095608;28;20040;-68
2021/08/27 03:08:42;;;;;;;;;;;;;;;22.75;89.35;99287.00;5097903;28;20415;-68
2021/08/27 03:11:14;;;;;;;73.05;30.58;;;;;;;22.69;87.39;99280.72;5093012;28;19918;-68
2021/08/27 03:14:01;;;;;;;108.57;33.42;;;;;;;22.53;89.74;99279.72;5091038;28;20032;-67
2021/08/27 03:16:28;;;;;;;75.70;34.75;;;;;;;22.42;89.26;99287.94;5093144;28;20031;-68
2021/08/27 03:19:02;;;;;;;90.57;36.88;;;;;;;22.25;91.29;99293.38;5098546;28;20032;-68
2021/08/27 03:21:32;;;;;;;80.65;38.33;;;;;;;22.34;90.13;99285.66;5097827;28;20028;-68
2021/08/27 03:24:14;;;;;;;92.57;37.70;;;;;;;22.25;91.31;99296.88;5090936;28;20249;-68
2021/08/27 03:26:40;;;;;;;93.25;37.33;;;;;;;22.25;90.81;99304.97;5092840;28;20028;-68
2021/08/27 03:29:08;;;;;;;98.05;36.05;;;;;;;22.21;91.77;99298.44;5095861;28;20272;-68
2021/08/27 03:31:34;;;;;;;73.47;38.00;;;;;;;22.23;91.99;99300.91;5092705;28;20040;-68
2021/08/27 03:34:01;;;;;;;76.80;34.90;;;;;;;22.21;91.72;99305.72;5092839;28;20031;-68
2021/08/27 03:36:30;;;;;;;79.70;37.67;;;;;;;22.15;92.94;99310.22;5094885;28;20217;-68
2021/08/27 03:38:57;;;;;;;76.82;37.40;;;;;;;22.24;92.21;99307.94;5077609;28;20348;-68
2021/08/27 03:41:27;;;;;;;73.63;35.70;;;;;;;22.29;91.56;99306.13;5094026;28;20389;-68
2021/08/27 03:43:54;;;;;;;83.28;34.35;;;;;;;22.44;90.02;99327.09;5097217;28;20070;-68
2021/08/27 03:46:20;;;;;;;91.85;34.30;;;;;;;22.41;89.16;99316.78;5093602;28;20052;-68
2021/08/27 03:48:47;;;;;;;89.45;33.70;;;;;;;22.36;89.18;99311.34;5092695;28;20221;-68
2021/08/27 03:51:13;;;;;;;73.85;32.38;;;;;;;22.32;89.45;99301.28;5095576;28;20361;-68
2021/08/27 03:53:39;;;;;;;64.15;33.63;;;;;;;22.25;89.82;99304.97;5093891;28;20024;-68
2021/08/27 03:56:08;;;;;;;81.43;32.00;;;;;;;22.16;90.26;99298.38;5092195;28;20088;-68
2021/08/27 03:58:36;;;;;;;68.03;31.92;;;;;;;22.05;90.96;99296.59;5096252;28;20334;-68
2021/08/27 04:01:02;;;;;;;74.60;30.60;;;;;;;21.95;92.25;99310.72;5075476;28;20024;-68
2021/08/27 04:03:27;;;;;;;71.80;31.65;;;;;;;21.95;91.77;99305.31;5094590;28;20032;-68
2021/08/27 04:06:01;;;;;;;69.72;31.40;;;;;;;21.97;91.86;99308.59;5095388;28;20032;-68
2021/08/27 04:08:28;;;;;;;91.95;33.80;;;;;;;21.97;91.83;99310.47;5093570;28;20028;-68
2021/08/27 04:10:53;;;;;;;72.95;32.03;;;;;;;21.97;92.08;99308.59;5093731;28;20051;-68
2021/08/27 04:13:19;;;;;;;71.68;31.80;;;;;;;22.03;93.00;99306.81;5094945;28;20036;-68
2021/08/27 04:15:44;;;;;;;65.75;34.08;;;;;;;22.08;93.46;99316.88;5094418;28;20024;-67
2021/08/27 04:18:10;;;;;;;77.38;34.83;;;;;;;22.23;94.12;99317.91;5094738;28;20050;-68
2021/08/27 04:20:35;;;;;;;54.67;34.53;;;;;;;22.27;93.32;99320.91;5092400;28;20262;-68
2021/08/27 04:23:00;;;;;;;59.03;34.53;;;;;;;22.41;92.32;99318.69;5095831;28;20381;-68
2021/08/27 04:25:26;;;;;;;52.72;33.10;;;;;;;22.52;92.17;99315.03;5094696;28;20032;-68
2021/08/27 04:27:51;;;;;;;51.85;34.60;;;;;;;22.67;91.11;99309.03;5094338;28;20039;-68
2021/08/27 04:30:17;;;;;;;76.15;34.30;;;;;;;22.72;89.82;99312.59;5095744;28;20034;-68
2021/08/27 04:32:42;;;;;;;57.30;34.42;;;;;;;22.77;89.60;99303.75;5094923;28;20098;-69
2021/08/27 04:35:08;;;;;;;65.22;35.53;;;;;;;22.84;89.69;99299.00;5093985;28;20054;-68
2021/08/27 04:37:33;;;;;;;86.82;34.25;;;;;;;22.81;89.16;99296.81;5094636;28;20371;-68
2021/08/27 04:39:59;;;;;;;55.65;34.13;;;;;;;22.91;88.84;99294.25;5093762;28;20071;-68
2021/08/27 04:42:24;;;;;;;75.35;34.33;;;;;;;23.00;88.87;99292.72;5093223;28;20091;-68
2021/08/27 04:44:50;;;;;;;86.03;35.72;;;;;;;23.07;87.65;99306.03;5095409;28;20030;-69
2021/08/27 04:47:15;;;;;;;88.13;35.97;;;;;;;23.09;87.09;99310.09;5094216;28;20042;-68
2021/08/27 04:49:41;;;;;;;99.32;35.13;;;;;;;23.12;86.14;99306.91;5094690;28;20028;-68
2021/08/27 04:52:07;;;;;;;54.42;33.50;;;;;;;23.06;86.64;99304.41;5092483;28;20044;-68
2021/08/27 04:54:33;;;;;;;53.17;31.98;;;;;;;23.06;86.30;99309.81;5097106;28;20020;-68
2021/08/27 04:56:58;;;;;;;60.55;35.13;;;;;;;23.03;86.70;99319.22;5098126;28;20024;-68
2021/08/27 04:59:24;;;;;;;59.33;33.97;;;;;;;23.03;87.14;99318.41;5097351;28;20043;-68
2021/08/27 05:01:49;;;;;;;54.72;35.65;;;;;;;23.18;86.89;99329.38;5099982;28;20249;-68
2021/08/27 05:04:14;;;;;;;60.28;38.45;;;;;;;23.11;89.25;99342.25;5103562;28;20031;-68
2021/08/27 05:06:40;;;;;;;64.65;39.53;;;;;;;23.19;89.52;99347.22;5099121;28;20058;-69
2021/08/27 05:09:05;;;;;;;64.03;39.70;;;;;;;23.14;89.13;99337.16;5095304;28;20246;-68
2021/08/27 05:11:31;;;;;;;56.55;37.05;;;;;;;23.28;86.50;99334.88;5096890;28;20042;-68
2021/08/27 05:13:56;;;;;;;56.65;35.42;;;;;;;23.25;84.77;99333.50;5097543;28;20055;-68
2021/08/27 05:16:22;;;;;;;55.53;36.10;;;;;;;23.01;85.85;99324.06;5096593;28;20016;-68
2021/08/27 05:18:47;;;;;;;55.05;35.15;;;;;;;22.91;86.59;99340.16;5097724;28;20341;-69
2021/08/27 05:21:15;;;;;;;51.03;35.03;;;;;;;22.95;86.95;99352.06;5095035;28;20402;-68
2021/08/27 05:23:41;;;;;;;59.88;36.95;;;;;;;22.99;88.14;99352.38;5097606;28;20035;-68
2021/08/27 05:26:06;;;;;;;63.03;38.53;;;;;;;22.85;89.89;99355.44;5097373;28;20031;-68
2021/08/27 05:28:32;;;;;;;63.65;38.75;;;;;;;22.64;90.63;99353.53;5096864;28;20338;-68
2021/08/27 05:30:57;;;;;;;57.00;35.20;;;;;;;22.72;88.78;99350.38;5097795;28;20356;-68
2021/08/27 05:33:23;;;;;;;53.05;34.83;;;;;;;22.81;87.47;99342.69;5096274;28;20238;-68
2021/08/27 05:35:48;;;;;;;52.55;35.63;;;;;;;22.81;87.71;99350.78;5096937;28;20032;-69
2021/08/27 05:38:14;;;;;;;57.15;36.05;;;;;;;22.91;87.54;99362.56;5096669;28;20040;-68
2021/08/27 05:40:39;;;;;;;53.17;34.60;;;;;;;22.76;86.83;99332.63;5096468;28;20020;-69
2021/08/27 05:43:04;;;;;;;56.83;36.17;;;;;;;22.88;86.95;99363.03;5085253;28;20027;-68
2021/08/27 05:45:30;;;;;;;54.17;36.33;;;;;;;22.86;88.01;99372.44;5082491;28;20272;-68
2021/08/27 05:47:55;;;;;;;54.70;36.78;;;;;;;22.64;89.87;99372.41;5095247;28;22005;-68
2021/08/27 05:50:21;;;;;;;54.70;37.63;;;;;;;22.33;91.16;99368.47;5100851;28;20032;-68
2021/08/27 05:52:46;;;;;;;56.80;38.83;;;;;;;22.56;90.58;99357.47;5100173;28;20028;-68
2021/08/27 05:55:12;;;;;;;56.38;37.58;;;;;;;22.92;88.04;99355.28;5089365;28;20044;-68
2021/08/27 05:57:38;;;;;;;53.22;36.97;;;;;;;23.08;86.34;99357.09;5096686;28;20036;-68
2021/08/27 06:00:06;;;;;;;54.28;36.60;;;;;;;23.04;86.51;99361.38;5084355;28;20083;-68
2021/08/27 06:02:31;;;;;;;56.08;37.72;;;;;;;22.93;85.99;99363.13;5083130;28;20032;-68
2021/08/27 06:04:59;;;;;;;52.65;35.83;;;;;;;22.80;87.56;99376.97;5081942;28;20222;-68
2021/08/27 06:07:25;;;;;;;52.97;36.53;;;;;;;22.94;86.86;99382.84;5083306;28;20035;-68
2021/08/27 06:09:50;;;;;;;57.83;38.65;;;;;;;22.98;86.90;99383.97;5082991;28;20102;-69
2021/08/27 06:12:17;;;;;;;57.30;39.10;;;;;;;23.23;85.64;99378.88;5083165;28;20040;-68
2021/08/27 06:14:42;;;;;;;53.72;36.83;;;;;;;23.33;84.66;99382.75;5083096;28;20048;-68
2021/08/27 06:17:08;;;;;;;49.45;36.30;;;;;;;23.60;84.59;99390.88;5088373;28;20097;-69
2021/08/27 06:19:33;;;;;;;49.45;34.50;;;;;;;24.04;81.46;99384.28;5103196;28;20028;-68
2021/08/27 06:21:59;;;;;;;51.30;35.78;;;;;;;23.94;81.35;99384.19;5100446;28;20041;-68
2021/08/27 06:24:25;;;;;;;55.25;37.70;;;;;;;23.82;81.19;99386.22;5082983;28;20040;-68
2021/08/27 06:26:50;;;;;;;64.85;42.38;;;;;;;23.48;82.34;99388.31;5082496;28;20044;-69
2021/08/27 06:29:16;;;;;;;67.90;43.55;;;;;;;23.28;83.48;99372.69;5082913;28;20023;-68
2021/08/27 06:31:42;;;;;;;74.00;48.13;;;;;;;23.30;84.03;99370.56;5064944;28;20048;-68
2021/08/27 06:34:07;;;;;;;91.28;53.42;;;;;;;23.33;84.08;99371.94;5087309;28;20051;-68
2021/08/27 06:36:33;;;;;;;91.05;52.33;;;;;;;23.25;84.67;99378.59;5100904;28;20040;-68
2021/08/27 06:38:58;;;;;;;83.95;51.20;;;;;;;23.33;84.97;99380.03;5096543;28;20040;-68
2021/08/27 06:41:24;;;;;;;84.68;51.90;;;;;;;23.43;85.80;99382.84;5097885;28;20028;-69
2021/08/27 06:43:50;;;;;;;80.82;49.83;;;;;;;23.79;83.82;99387.56;5096285;28;20036;-68
2021/08/27 06:46:18;;;;;;;78.05;49.88;;;;;;;23.93;83.75;99381.72;5092408;28;20051;-68
2021/08/27 06:48:44;;;;;;;73.18;46.83;;;;;;;24.30;82.67;99400.72;5096941;28;20036;-69
2021/08/27 06:51:10;;;;;;;70.57;45.95;;;;;;;24.56;79.25;99399.81;5095058;28;20205;-69
2021/08/27 06:53:35;;;;;;;68.72;44.20;;;;;;;24.76;77.19;99386.38;5098132;28;20384;-69
2021/08/27 06:56:01;;;;;;;69.15;47.22;;;;;;;24.60;78.07;99375.75;5095510;28;20028;-68
2021/08/27 06:58:27;;;;;;;71.40;46.05;;;;;;;24.84;76.89;99383.19;5095794;28;20047;-68
2021/08/27 07:00:52;;;;;;;64.97;43.45;;;;;;;25.46;73.22;99387.78;5097464;28;20272;-68
2021/08/27 07:03:18;;;;;;;61.30;40.40;;;;;;;25.89;71.14;99388.41;5101230;28;20032;-68
2021/08/27 07:05:43;;;;;;;59.35;41.08;;;;;;;26.52;69.48;99396.28;5096572;28;20059;-69
2021/08/27 07:08:09;;;;;;;57.50;38.70;;;;;;;26.50;68.61;99388.41;5096498;28;20032;-69
2021/08/27 07:10:35;;;;;;;59.17;39.95;;;;;;;26.53;68.73;99387.03;5094212;28;20039;-68
2021/08/27 07:13:01;;;;;;;57.40;39.20;;;;;;;26.43;69.30;99398.72;5094786;28;20203;-68
2021/08/27 07:15:26;;;;;;;59.05;39.15;;;;;;;25.85;70.23;99394.63;5093706;28;20353;-68
2021/08/27 07:17:53;;;;;;;61.63;40.75;;;;;;;26.00;71.01;99384.59;5094990;28;20036;-68
2021/08/27 07:20:19;;;;;;;56.80;40.53;;;;;;;26.20;71.48;99383.00;5095740;28;20031;-69
2021/08/27 07:22:46;;;;;;;55.90;38.15;;;;;;;26.83;67.96;99373.38;5092994;28;20036;-68
2021/08/27 07:25:12;;;;;;;60.67;38.58;;;;;;;27.23;64.93;99374.31;5095447;28;20027;-68
2021/08/27 07:27:39;;;;;;;56.22;38.95;;;;;;;27.38;65.60;99360.66;5093930;28;20127;-69
2021/08/27 07:30:06;;;;;;;50.72;35.95;;;;;;;27.85;63.25;99364.69;5095222;28;20043;-69
2021/08/27 07:32:32;;;;;;;43.97;32.42;;;;;;;28.23;59.70;99365.78;5096292;28;20350;-69
2021/08/27 07:34:57;;;;;;;40.45;28.67;;;;;;;28.56;59.00;99370.31;5094757;28;20134;-69
2021/08/27 07:37:23;;;;;;;36.58;25.48;;;;;;;29.01;56.89;99368.19;5094603;28;20040;-68
2021/08/27 07:39:48;;;;;;;36.92;26.77;;;;;;;29.27;56.87;99354.22;5096336;28;20032;-69
2021/08/27 07:42:13;;;;;;;41.05;29.45;;;;;;;29.34;57.08;99377.31;5093627;28;20034;-68
2021/08/27 07:44:39;;;;;;;41.35;29.88;;;;;;;29.67;56.97;99355.56;5093111;28;20032;-68
2021/08/27 07:47:05;;;;;;;45.78;31.77;;;;;;;30.11;56.40;99369.59;5094851;28;20047;-69
2021/08/27 07:49:30;;;;;;;35.67;25.77;;;;;;;30.11;54.45;99363.31;5077066;28;20032;-69
2021/08/27 07:51:57;;;;;;;32.45;25.13;;;;;;;30.12;53.79;99373.13;5097150;28;20068;-69
2021/08/27 07:54:23;;;;;;;36.30;25.27;;;;;;;30.59;54.19;99365.78;5093234;28;20046;-68
2021/08/27 07:56:49;;;;;;;26.77;20.17;;;;;;;30.95;50.93;99374.06;5095974;28;20039;-69
2021/08/27 07:59:15;;;;;;;30.08;20.38;;;;;;;31.02;50.98;99382.66;5093657;28;20265;-69
2021/08/27 08:01:40;;;;;;;23.73;19.38;;;;;;;30.62;51.30;99387.84;5093932;28;20074;-69
2021/08/27 08:04:06;;;;;;;24.48;18.00;;;;;;;30.28;52.07;99392.81;5094909;28;20123;-69
2021/08/27 08:06:32;;;;;;;22.27;19.08;;;;;;;30.44;50.28;99394.97;5092914;28;20088;-69
2021/08/27 08:09:00;;;;;;;25.48;19.60;;;;;;;30.55;51.03;99362.00;5095916;28;20035;-69
2021/08/27 08:11:25;;;;;;;29.00;19.95;;;;;;;30.63;50.72;99384.00;5093128;28;20044;-69
2021/08/27 08:13:51;;;;;;;24.55;17.85;;;;;;;30.29;51.18;99387.06;5095638;28;20068;-69
2021/08/27 08:16:17;;;;;;;21.50;16.10;;;;;;;30.69;49.36;99388.25;5095760;28;20020;-69
2021/08/27 08:18:42;;;;;;;27.48;19.02;;;;;;;30.89;48.71;99378.03;5093581;28;20036;-69
2021/08/27 08:21:08;;;;;;;36.97;24.80;;;;;;;30.37;50.59;99372.72;5095543;28;20102;-69
2021/08/27 08:23:34;;;;;;;32.85;22.80;;;;;;;29.53;53.13;99367.22;5094299;28;20039;-69
2021/08/27 08:26:00;;;;;;;31.00;23.98;;;;;;;29.90;53.46;99359.28;5094414;28;20031;-68
2021/08/27 08:28:25;;;;;;;24.48;19.90;;;;;;;30.05;53.02;99364.53;5095242;28;20321;-69
2021/08/27 08:30:51;;;;;;;24.05;18.10;;;;;;;29.81;51.20;99359.97;5098685;28;20186;-69
2021/08/27 08:33:18;;;;;;;24.73;19.27;;;;;;;29.83;51.80;99362.41;5097894;28;20042;-69
2021/08/27 08:35:43;;;;;;;26.10;19.23;;;;;;;29.90;51.85;99362.03;5098959;28;20044;-69
2021/08/27 08:38:09;;;;;;;23.17;18.45;;;;;;;30.14;50.37;99366.25;5096221;28;20351;-69
2021/08/27 08:40:45;;;;;;;22.38;17.13;;;;;;;29.90;50.90;99362.84;5099517;28;20224;-69
2021/08/27 08:43:12;;;;;;;24.75;18.42;;;;;;;29.92;49.48;99359.81;5097193;28;20114;-68
2021/08/27 08:45:46;;;;;;;22.65;18.98;;;;;;;30.41;49.94;99360.06;5095912;28;20050;-69
2021/08/27 08:48:13;;;;;;;24.67;19.08;;;;;;;29.91;49.82;99364.44;5097912;28;20028;-69
2021/08/27 08:50:39;;;;;;;27.38;19.75;;;;;;;29.91;49.95;99364.44;5096970;28;20130;-68
2021/08/27 08:53:05;;;;;;;27.48;19.65;;;;;;;30.04;50.72;99360.16;5096395;28;20032;-69
2021/08/27 08:55:31;;;;;;;23.48;19.20;;;;;;;30.12;52.64;99354.84;5098611;28;20027;-69
2021/08/27 08:57:57;;;;;;;21.75;17.08;;;;;;;30.11;49.72;99355.13;5081601;28;20112;-69
2021/08/27 09:00:23;;;;;;;22.35;17.23;;;;;;;30.32;50.75;99353.69;5095035;28;20091;-69
2021/08/27 09:02:49;;;;;;;20.23;16.83;;;;;;;30.81;48.24;99342.09;5099037;28;20081;-69
2021/08/27 09:05:14;;;;;;;20.33;14.48;;;;;;;30.74;47.93;99341.69;5095938;28;20238;-69
2021/08/27 09:07:40;;;;;;;21.27;14.63;;;;;;;31.28;45.98;99339.22;5097899;28;20036;-69
2021/08/27 09:10:05;;;;;;;19.42;14.70;;;;;;;31.15;46.12;99331.81;5099366;28;20040;-69
2021/08/27 09:12:31;;;;;;;20.25;15.13;;;;;;;31.18;44.93;99339.41;5094706;28;20099;-69
2021/08/27 09:15:07;;;;;;;18.70;14.70;;;;;;;31.27;44.88;99332.94;5098147;28;20318;-69
2021/08/27 09:17:38;;;;;;;24.30;16.48;;;;;;;30.10;47.34;99326.22;5097836;28;20028;-69
2021/08/27 09:20:12;;;;;;;21.50;16.55;;;;;;;29.98;49.56;99332.13;5096044;28;20039;-69
2021/08/27 09:22:53;;;;;;;18.83;15.35;;;;;;;30.05;47.99;99331.75;5096885;28;20050;-69
2021/08/27 09:25:23;;;;;;;24.35;18.95;;;;;;;30.26;48.93;99330.31;5095209;28;20027;-69
2021/08/27 09:28:15;;;;;;;22.10;18.13;;;;;;;30.43;49.93;99327.78;5093272;28;20039;-69
2021/08/27 09:30:46;;;;;;;25.02;20.45;;;;;;;30.44;50.09;99317.66;5094270;28;20032;-69
2021/08/27 09:33:21;;;;;;;22.00;18.67;;;;;;;30.30;49.73;99314.94;5093565;28;20081;-69
2021/08/27 09:35:57;;;;;;;25.90;18.15;;;;;;;29.85;49.98;99309.13;5098488;28;20437;-69
2021/08/27 09:38:28;;;;;;;24.98;20.30;;;;;;;30.22;51.43;99320.28;5096293;28;20036;-69
2021/08/27 09:41:04;;;;;;;23.30;18.60;;;;;;;30.09;51.24;99319.94;5094857;28;20130;-69
2021/08/27 09:43:39;;;;;;;28.58;22.40;;;;;;;30.24;51.15;99310.69;5097531;28;20032;-69
2021/08/27 09:46:04;;;;;;;26.67;21.45;;;;;;;30.00;51.23;99315.44;5094058;28;20100;-69
2021/08/27 09:48:38;;;;;;;35.03;24.17;;;;;;;29.75;51.33;99316.69;5097452;28;20031;-69
2021/08/27 09:51:03;;;;;;;30.17;22.83;;;;;;;29.23;51.85;99300.28;5099538;28;20059;-69
2021/08/27 09:53:41;;;;;;;30.38;22.85;;;;;;;28.81;52.46;99306.53;5093621;28;20032;-68
2021/08/27 09:56:07;;;;;;;29.02;22.40;;;;;;;28.45;53.89;99300.72;5094824;28;20032;-69
2021/08/27 09:58:51;;;;;;;29.42;21.98;;;;;;;28.56;54.86;99296.78;5094618;28;20082;-69
2021/08/27 10:01:16;;;;;;;27.77;23.35;;;;;;;28.48;55.94;99307.50;5094379;28;20032;-69
2021/08/27 10:03:42;;;;;;;29.63;22.27;;;;;;;28.08;55.18;99293.16;5095960;28;20098;-69
2021/08/27 10:06:10;;;;;;;24.58;20.65;;;;;;;28.24;55.02;99286.53;5096637;28;20063;-69
2021/08/27 10:08:36;;;;;;;27.33;22.05;;;;;;;28.53;56.03;99281.03;5097837;28;20220;-69
2021/08/27 10:11:23;;;;;;;30.08;22.08;;;;;;;28.85;55.41;99285.00;5075328;28;20025;-69
2021/08/27 10:13:52;;;;;;;27.60;20.90;;;;;;;28.90;54.03;99285.75;5075770;28;20021;-69
2021/08/27 10:16:17;;;;;;;27.13;21.02;;;;;;;29.22;53.36;99281.50;5073930;28;20207;-69
2021/08/27 10:18:43;;;;;;;28.13;21.67;;;;;;;29.10;54.26;99279.19;5076026;28;20070;-70
2021/08/27 10:21:09;;;;;;;29.80;20.92;;;;;;;29.30;52.53;99269.13;5075153;28;20058;-69
2021/08/27 10:23:34;;;;;;;26.20;19.58;;;;;;;29.49;50.75;99272.66;5075198;28;20028;-69
2021/08/27 10:26:29;;;;;;;31.15;19.67;;;;;;;29.33;51.53;99263.88;5076815;28;20032;-69
2021/08/27 10:29:02;;;;;;;24.13;19.98;;;;;;;28.89;52.03;99258.78;5063627;28;20052;-69
2021/08/27 10:31:47;;;;;;;24.63;19.98;;;;;;;28.79;52.22;99258.91;5076925;28;20025;-69
2021/08/27 10:34:17;;;;;;;26.45;18.92;;;;;;;28.71;52.32;99257.63;5072266;28;20035;-68
2021/08/27 10:36:47;;;;;;;24.02;19.02;;;;;;;28.36;53.49;99250.72;5076762;28;20028;-69
2021/08/27 10:39:33;;;;;;;29.42;19.77;;;;;;;28.50;54.13;99248.09;5074669;28;20080;-68
2021/08/27 10:41:59;;;;;;;24.45;19.25;;;;;;;28.37;53.29;99246.09;5075860;28;20064;-69
2021/08/27 10:44:48;;;;;;;28.38;18.77;;;;;;;28.61;54.34;99244.16;5074599;28;20035;-69
2021/08/27 10:47:13;;;;;;;23.92;18.85;;;;;;;28.69;53.19;99234.50;5073474;28;20056;-69
2021/08/27 10:49:45;;;;;;;24.50;18.85;;;;;;;28.26;54.14;99235.31;5074220;28;20032;-68
2021/08/27 10:52:37;;;;;;;25.20;18.55;;;;;;;28.11;53.74;99234.66;5072129;28;20024;-69
2021/08/27 10:55:03;;;;;;;22.52;17.75;;;;;;;28.22;54.32;99242.41;5071958;28;20059;-68
2021/08/27 10:57:29;;;;;;;24.45;18.90;;;;;;;28.34;54.89;99228.44;5076293;28;20322;-69
2021/08/27 11:00:01;;;;;;;23.60;18.02;;;;;;;28.42;54.36;99216.06;5074453;28;20036;-69
2021/08/27 11:02:27;;;;;;;23.38;17.95;;;;;;;28.29;53.68;99223.84;5071764;28;20426;-69
2021/08/27 11:04:53;;;;;;;22.13;17.45;;;;;;;28.33;53.86;99220.53;5075686;28;20099;-69
2021/08/27 11:07:24;;;;;;;20.85;16.05;;;;;;;28.14;54.18;99229.44;5075718;28;20029;-69
2021/08/27 11:10:09;;;;;;;23.05;16.23;;;;;;;28.44;54.29;99224.75;5072607;28;20345;-68
2021/08/27 11:12:36;;;;;;;19.45;15.68;;;;;;;28.38;54.60;99228.66;5090799;28;20048;-69
2021/08/27 11:15:29;;;;;;;22.10;15.77;;;;;;;28.47;52.45;99222.25;5094787;28;20063;-69
2021/08/27 11:18:04;;;;;;;22.83;15.52;;;;;;;28.72;54.30;99225.75;5091719;28;20044;-69
2021/08/27 11:20:30;;;;;;;21.10;15.05;;;;;;;28.98;52.79;99218.06;5095540;28;20055;-69
2021/08/27 11:22:55;;;;;;;21.30;15.52;;;;;;;29.01;52.14;99226.44;5094102;28;20051;-70